Time;durP1;ratioP1;P1;durP2;ratioP2;P2;SDS_P1;SDS_P2;PMS_P1;PMS_P2;Temp;Humidity;BMP_temperature;BMP_pressure;BME280_temperature;BME280_humidity;BME280_pressure;Samples;Min_cycle;Max_cycle;Signal;HPM_P1;HPM_P2
2022/06/11 00:02:18;;;;;;;23.75;4.10;;;;;;;17.23;61.50;100954.59;5068819;28;20476;-89
2022/06/11 00:04:44;;;;;;;28.92;5.28;;;;;;;17.22;61.34;100955.59;5054169;28;20057;-90
2022/06/11 00:07:13;;;;;;;27.90;4.78;;;;;;;17.18;61.89;100960.31;5053663;28;20053;-90
2022/06/11 00:09:39;;;;;;;22.35;3.67;;;;;;;17.20;61.57;100957.50;5053856;28;20076;-90
2022/06/11 00:12:06;;;;;;;21.88;4.43;;;;;;;17.21;61.63;100961.84;5053725;28;20029;-89
2022/06/11 00:14:33;;;;;;;23.45;3.58;;;;;;;17.10;62.07;100959.28;5053994;28;20029;-90
2022/06/11 00:17:00;;;;;;;25.02;5.43;;;;;;;17.15;61.61;100955.25;5064903;28;20571;-91
2022/06/11 00:19:26;;;;;;;22.92;4.13;;;;;;;16.99;62.22;100947.78;5053752;28;20024;-89
2022/06/11 00:21:53;;;;;;;20.13;3.60;;;;;;;17.00;61.89;100953.94;5053538;28;20104;-90
2022/06/11 00:24:21;;;;;;;22.10;4.28;;;;;;;16.87;62.34;100948.03;5053385;28;20025;-90
2022/06/11 00:26:48;;;;;;;24.80;4.07;;;;;;;16.96;62.06;100950.72;5052387;28;20036;-90
2022/06/11 00:29:16;;;;;;;19.30;3.85;;;;;;;16.88;62.27;100952.34;5053490;28;20028;-91
2022/06/11 00:31:42;;;;;;;23.65;4.47;;;;;;;16.94;62.24;100949.16;5062220;28;20402;-89
2022/06/11 00:34:08;;;;;;;17.50;3.72;;;;;;;16.94;61.98;100955.31;5066969;28;20017;-90
2022/06/11 00:36:34;;;;;;;23.08;4.05;;;;;;;16.60;63.49;100958.16;5053241;28;20536;-90
2022/06/11 00:39:00;;;;;;;20.80;3.80;;;;;;;16.90;62.65;100948.56;5053730;28;20029;-90
2022/06/11 00:41:28;;;;;;;24.52;4.25;;;;;;;16.92;62.44;100949.28;5052794;28;20107;-91
2022/06/11 00:43:54;;;;;;;24.33;5.18;;;;;;;16.88;62.46;100955.81;5054057;28;20031;-90
2022/06/11 00:46:57;;;;;;;23.75;4.93;;;;;;;16.89;62.50;100946.91;5053121;28;20037;-90
2022/06/11 00:49:46;;;;;;;31.63;5.03;;;;;;;16.92;62.58;100951.94;5059306;28;20112;-89
2022/06/11 00:52:24;;;;;;;20.13;4.00;;;;;;;16.90;62.61;100956.53;5065504;28;20083;-90
2022/06/11 00:54:57;;;;;;;23.80;4.22;;;;;;;16.80;62.97;100950.31;5051484;28;20422;-90
2022/06/11 00:57:24;;;;;;;22.55;3.47;;;;;;;16.69;63.38;100958.34;5052830;28;20491;-90
2022/06/11 00:59:55;;;;;;;15.75;2.88;;;;;;;16.69;63.07;100953.06;5052717;28;20425;-90
2022/06/11 01:02:21;;;;;;;20.55;4.03;;;;;;;16.85;62.98;100948.16;5059298;28;20025;-89
2022/06/11 01:04:51;;;;;;;25.17;3.45;;;;;;;16.76;63.22;100957.69;5070428;28;20025;-88
2022/06/11 01:07:47;;;;;;;25.98;5.53;;;;;;;16.66;63.69;100952.31;5054070;28;20116;-89
2022/06/11 01:10:40;;;;;;;23.92;5.28;;;;;;;16.53;64.24;100951.69;5052228;28;20051;-89
2022/06/11 01:13:30;;;;;;;24.23;4.32;;;;;;;16.72;63.49;100956.25;5055317;28;20116;-89
2022/06/11 01:16:00;;;;;;;19.75;4.05;;;;;;;16.66;64.06;100952.31;5052360;28;20482;-88
2022/06/11 01:18:48;;;;;;;17.73;3.85;;;;;;;16.62;64.09;100950.91;5051406;28;20048;-88
2022/06/11 01:21:17;;;;;;;26.13;4.72;;;;;;;16.60;63.84;100950.19;5043929;28;20037;-89
2022/06/11 01:23:54;;;;;;;35.92;5.55;;;;;;;16.59;63.86;100945.03;5054413;28;20025;-89
2022/06/11 01:27:04;;;;;;;18.77;3.63;;;;;;;16.64;64.17;100943.66;5052273;28;20028;-89
2022/06/11 01:29:38;;;;;;;20.40;3.65;;;;;;;16.63;64.48;100952.59;5036147;28;20072;-89
2022/06/11 01:32:11;;;;;;;26.80;4.30;;;;;;;16.63;63.78;100943.81;5057828;28;20099;-90
2022/06/11 01:35:10;;;;;;;25.20;3.72;;;;;;;16.39;65.16;100946.69;5072082;28;20028;-90
2022/06/11 01:37:38;;;;;;;30.33;4.80;;;;;;;16.51;64.80;100944.81;5060320;28;20574;-90
2022/06/11 01:40:20;;;;;;;27.55;4.13;;;;;;;16.61;64.13;100949.25;5071903;28;20032;-91
2022/06/11 01:42:53;;;;;;;22.38;4.50;;;;;;;16.50;64.38;100951.94;5071016;28;20043;-89
2022/06/11 01:45:21;;;;;;;23.58;4.28;;;;;;;16.23;65.73;100945.34;5070776;28;20032;-90
2022/06/11 01:47:47;;;;;;;24.83;4.50;;;;;;;16.34;65.20;100955.03;5069487;28;20099;-88
2022/06/11 01:50:17;;;;;;;22.75;4.55;;;;;;;16.42;65.18;100949.94;5071842;28;20087;-88
2022/06/11 01:53:07;;;;;;;25.27;4.15;;;;;;;16.41;65.19;100955.34;5070354;28;20036;-88
2022/06/11 01:55:57;;;;;;;25.60;4.50;;;;;;;16.39;65.48;100952.00;5070110;28;20467;-89
2022/06/11 01:58:40;;;;;;;26.58;4.20;;;;;;;16.27;65.96;100956.50;5071767;28;20020;-89
2022/06/11 02:01:18;;;;;;;20.77;4.07;;;;;;;16.20;65.96;100958.00;5072037;28;20024;-88
2022/06/11 02:04:09;;;;;;;28.40;5.10;;;;;;;16.38;65.18;100963.59;5071711;28;20020;-88
2022/06/11 02:06:46;;;;;;;28.30;4.20;;;;;;;16.21;65.80;100965.84;5070217;28;20031;-90
2022/06/11 02:09:39;;;;;;;23.77;3.55;;;;;;;16.28;65.95;100957.38;5071665;28;20074;-89
2022/06/11 02:12:15;;;;;;;27.65;4.38;;;;;;;16.17;66.34;100950.31;5059477;28;20035;-89
2022/06/11 02:14:54;;;;;;;22.40;4.05;;;;;;;16.35;65.65;100958.53;5072183;28;20039;-88
2022/06/11 02:17:28;;;;;;;31.45;4.55;;;;;;;16.26;66.18;100950.38;5069248;28;20449;-89
2022/06/11 02:20:05;;;;;;;26.00;5.13;;;;;;;16.34;65.90;100962.16;5051525;28;20025;-89
2022/06/11 02:22:39;;;;;;;24.88;3.67;;;;;;;16.32;65.83;100959.63;5053991;28;20432;-89
2022/06/11 02:25:13;;;;;;;29.63;5.80;;;;;;;16.25;66.17;100958.44;5051278;28;20364;-89
2022/06/11 02:27:41;;;;;;;22.42;4.45;;;;;;;16.18;66.18;100967.91;5051290;28;20029;-88
2022/06/11 02:30:10;;;;;;;23.35;4.05;;;;;;;16.16;66.10;100964.53;5052348;28;20033;-89
2022/06/11 02:32:36;;;;;;;25.63;4.18;;;;;;;16.16;66.28;100970.66;5062085;28;20028;-90
2022/06/11 02:35:06;;;;;;;27.65;3.90;;;;;;;16.08;66.50;100969.63;5070104;28;20024;-90
2022/06/11 02:37:38;;;;;;;23.60;3.35;;;;;;;16.04;66.72;100971.69;5065985;28;20022;-90
2022/06/11 02:40:11;;;;;;;23.70;4.60;;;;;;;16.14;66.09;100956.72;5050290;28;20036;-90
2022/06/11 02:42:37;;;;;;;23.97;3.70;;;;;;;16.19;65.62;100972.22;5061784;28;20501;-89
2022/06/11 02:45:05;;;;;;;28.55;4.95;;;;;;;16.05;66.51;100968.91;5055193;28;20051;-89
2022/06/11 02:47:30;;;;;;;24.92;4.55;;;;;;;16.12;66.20;100961.28;5051270;28;20068;-89
2022/06/11 02:49:56;;;;;;;23.45;3.92;;;;;;;16.18;66.31;100958.13;5050908;28;20112;-89
2022/06/11 02:52:24;;;;;;;29.67;6.78;;;;;;;16.19;66.05;100964.25;5052244;28;20495;-91
2022/06/11 02:54:51;;;;;;;27.35;5.22;;;;;;;16.21;65.98;100971.13;5050960;28;20022;-89
2022/06/11 02:57:22;;;;;;;25.63;4.82;;;;;;;16.05;66.42;100973.34;5051222;28;20071;-89
2022/06/11 02:59:48;;;;;;;23.88;4.53;;;;;;;16.10;66.42;100965.03;5052222;28;20025;-89
2022/06/11 03:02:15;;;;;;;22.40;3.75;;;;;;;15.98;66.29;100969.53;5056036;28;20024;-88
2022/06/11 03:04:41;;;;;;;27.25;4.72;;;;;;;15.96;66.93;100979.41;5073767;28;20025;-89
2022/06/11 03:07:08;;;;;;;34.55;4.32;;;;;;;16.08;66.52;100981.06;5074203;28;20033;-90
2022/06/11 03:09:35;;;;;;;31.70;5.20;;;;;;;16.09;66.28;100977.44;5074738;28;20021;-89
2022/06/11 03:12:03;;;;;;;25.58;4.90;;;;;;;16.04;66.80;100977.81;5074495;28;20017;-89
2022/06/11 03:14:29;;;;;;;19.95;4.03;;;;;;;15.97;66.30;100973.13;5063061;28;20028;-88
2022/06/11 03:16:55;;;;;;;20.98;3.60;;;;;;;16.12;66.20;100979.84;5055088;28;20090;-89
2022/06/11 03:19:21;;;;;;;14.20;3.38;;;;;;;16.07;65.98;100976.72;5066370;28;20025;-87
2022/06/11 03:21:53;;;;;;;23.38;3.90;;;;;;;15.74;67.55;100981.16;5068131;28;20025;-89
2022/06/11 03:24:19;;;;;;;21.63;3.92;;;;;;;15.91;66.76;100984.22;5083314;28;20028;-88
2022/06/11 03:26:45;;;;;;;27.73;5.47;;;;;;;15.63;68.17;100989.06;5078836;28;20037;-89
2022/06/11 03:29:11;;;;;;;24.85;4.18;;;;;;;15.93;66.90;100984.94;5064172;28;20033;-88
2022/06/11 03:31:37;;;;;;;29.42;4.43;;;;;;;15.78;67.17;100987.88;5056176;28;20452;-88
2022/06/11 03:34:03;;;;;;;20.05;4.00;;;;;;;16.06;66.38;100985.63;5065234;28;20127;-87
2022/06/11 03:36:29;;;;;;;26.60;4.20;;;;;;;15.97;66.15;100983.72;5075475;28;20024;-88
2022/06/11 03:38:54;;;;;;;25.67;4.47;;;;;;;15.76;67.40;100983.69;5077175;28;20107;-88
2022/06/11 03:41:21;;;;;;;22.13;3.97;;;;;;;15.74;67.11;100972.34;5076998;28;20028;-88
2022/06/11 03:43:49;;;;;;;22.88;4.57;;;;;;;15.99;66.58;100987.09;5070240;28;20035;-89
2022/06/11 03:46:14;;;;;;;25.35;4.18;;;;;;;16.04;66.19;100990.22;5055010;28;20040;-88
2022/06/11 03:48:40;;;;;;;22.15;4.18;;;;;;;15.98;66.52;100996.03;5056902;28;20025;-90
2022/06/11 03:51:07;;;;;;;22.45;3.63;;;;;;;15.87;67.19;100994.22;5057305;28;20033;-88
2022/06/11 03:53:33;;;;;;;20.08;3.40;;;;;;;15.96;66.61;100992.66;5071316;28;20136;-89
2022/06/11 03:55:59;;;;;;;19.92;3.53;;;;;;;16.07;66.63;100992.59;5075420;28;20067;-89
2022/06/11 03:58:25;;;;;;;29.50;5.28;;;;;;;15.94;66.81;100994.59;5074180;28;20027;-89
2022/06/11 04:03:36;;;;;;;25.35;3.85;;;;;;;16.12;66.31;101003.69;5073974;28;20039;-89
2022/06/11 04:06:02;;;;;;;27.23;4.32;;;;;;;16.10;66.53;100996.84;5073459;28;20090;-89
2022/06/11 04:08:28;;;;;;;38.03;4.32;;;;;;;16.07;66.59;100995.25;5071442;28;20028;-89
2022/06/11 04:10:56;;;;;;;32.97;4.70;;;;;;;16.15;66.43;101005.22;5069855;28;20025;-88
2022/06/11 04:13:23;;;;;;;29.88;4.35;;;;;;;16.06;66.77;101002.38;5073819;28;20024;-89
2022/06/11 04:15:50;;;;;;;35.00;6.47;;;;;;;16.10;67.12;101018.03;5072934;28;20028;-89
2022/06/11 04:18:27;;;;;;;25.67;4.30;;;;;;;16.20;66.18;101011.84;5072376;28;20027;-88
2022/06/11 04:20:53;;;;;;;18.33;3.97;;;;;;;16.18;66.29;101011.13;5073804;28;20040;-89
2022/06/11 04:23:19;;;;;;;25.15;4.13;;;;;;;16.08;66.92;101020.78;5066385;28;20033;-88
2022/06/11 04:25:45;;;;;;;24.35;4.00;;;;;;;16.11;66.89;101025.81;5054635;28;20383;-88
2022/06/11 04:28:11;;;;;;;25.08;4.80;;;;;;;16.21;66.28;101018.81;5053525;28;20472;-89
2022/06/11 04:30:38;;;;;;;20.02;3.55;;;;;;;16.34;66.36;101026.59;5052908;28;20082;-90
2022/06/11 04:33:04;;;;;;;26.10;3.67;;;;;;;16.23;66.11;101026.63;5061025;28;20028;-90
2022/06/11 04:35:30;;;;;;;27.48;3.58;;;;;;;16.23;66.27;101024.84;5073178;28;20028;-90
2022/06/11 04:37:55;;;;;;;21.20;3.35;;;;;;;16.34;65.95;101020.47;5073197;28;20020;-89
2022/06/11 04:40:20;;;;;;;22.65;3.75;;;;;;;16.41;66.19;101034.88;5071110;28;20039;-90
2022/06/11 04:42:46;;;;;;;28.88;4.40;;;;;;;16.45;65.72;101028.38;5072687;28;20028;-91
2022/06/11 04:45:12;;;;;;;20.50;3.45;;;;;;;16.39;66.14;101027.06;5072765;28;20024;-90
2022/06/11 04:47:39;;;;;;;20.52;3.38;;;;;;;16.42;65.86;101025.97;5072891;28;20024;-90
2022/06/11 04:50:06;;;;;;;23.83;4.15;;;;;;;16.50;66.00;101035.94;5072885;28;20471;-89
2022/06/11 04:52:31;;;;;;;32.70;5.18;;;;;;;16.31;66.94;101036.59;5072156;28;20036;-90
2022/06/11 04:54:57;;;;;;;24.25;4.55;;;;;;;16.63;65.74;101041.91;5071605;28;20029;-90
2022/06/11 04:57:22;;;;;;;22.60;4.03;;;;;;;16.30;66.98;101050.84;5072644;28;20053;-89
2022/06/11 04:59:48;;;;;;;32.88;3.60;;;;;;;16.15;67.78;101044.97;5073132;28;20025;-89
2022/06/11 05:02:14;;;;;;;27.00;4.32;;;;;;;16.33;67.30;101053.22;5072224;28;20159;-89
2022/06/11 05:04:39;;;;;;;26.45;4.25;;;;;;;16.40;66.83;101049.94;5072931;28;20032;-89
2022/06/11 05:07:05;;;;;;;29.17;4.68;;;;;;;16.41;66.92;101064.88;5070831;28;20375;-90
2022/06/11 05:09:31;;;;;;;18.40;3.42;;;;;;;16.60;66.40;101066.84;5064249;28;20020;-90
2022/06/11 05:11:57;;;;;;;28.02;4.03;;;;;;;16.73;65.89;101069.34;5053215;28;20024;-89
2022/06/11 05:14:23;;;;;;;19.58;3.88;;;;;;;16.55;65.75;101065.56;5071989;28;20409;-89
2022/06/11 05:16:49;;;;;;;24.55;3.55;;;;;;;16.46;66.40;101067.97;5072229;28;20076;-88
2022/06/11 05:19:18;;;;;;;20.00;3.85;;;;;;;16.46;66.40;101067.16;5072015;28;20028;-90
2022/06/11 05:21:44;;;;;;;24.20;4.80;;;;;;;16.63;66.11;101060.47;5069612;28;20351;-89
2022/06/11 05:24:10;;;;;;;22.48;3.42;;;;;;;16.70;66.11;101060.78;5057465;28;20017;-89
2022/06/11 05:26:46;;;;;;;21.77;3.83;;;;;;;16.91;65.11;101061.66;5050434;28;20043;-89
2022/06/11 05:29:20;;;;;;;24.23;4.13;;;;;;;16.98;65.18;101062.84;5051943;28;20063;-90
2022/06/11 05:31:46;;;;;;;23.50;4.85;;;;;;;17.14;64.71;101067.69;5050540;28;20032;-90
2022/06/11 05:34:11;;;;;;;27.08;4.43;;;;;;;16.95;65.28;101062.25;5068257;28;20029;-90
2022/06/11 05:36:36;;;;;;;14.90;4.00;;;;;;;17.02;64.99;101069.56;5061374;28;20025;-90
2022/06/11 05:39:02;;;;;;;20.63;3.40;;;;;;;16.98;65.24;101057.53;5062253;28;20024;-90
2022/06/11 05:41:28;;;;;;;24.58;3.78;;;;;;;16.99;65.64;101061.84;5071666;28;20027;-90
2022/06/11 05:43:54;;;;;;;23.38;3.55;;;;;;;17.12;65.26;101066.97;5071504;28;20021;-90
2022/06/11 05:46:22;;;;;;;20.55;3.78;;;;;;;17.28;64.80;101058.53;5071542;28;20439;-90
2022/06/11 05:48:53;;;;;;;26.67;5.25;;;;;;;17.35;64.62;101057.03;5070089;28;20420;-90
2022/06/11 05:51:25;;;;;;;23.33;5.73;;;;;;;17.39;64.84;101055.78;5059253;28;20029;-89
2022/06/11 05:53:51;;;;;;;;;;;;;;;17.88;63.55;101055.16;5065862;28;20108;-90
2022/06/11 05:56:17;;;;;;;19.65;3.53;;;;;;;17.85;63.41;101061.56;5071612;28;19919;-90
2022/06/11 05:58:49;;;;;;;27.17;4.03;;;;;;;18.01;63.25;101059.25;5071253;28;20032;-88
2022/06/11 06:01:17;;;;;;;28.95;4.07;;;;;;;18.37;62.36;101066.72;5068686;28;20033;-88
2022/06/11 06:03:42;;;;;;;23.02;3.47;;;;;;;18.26;62.90;101061.53;5064886;28;20043;-90
2022/06/11 06:06:07;;;;;;;18.15;3.90;;;;;;;18.32;62.29;101058.31;5071436;28;20032;-91
2022/06/11 06:08:33;;;;;;;23.75;5.05;;;;;;;18.65;61.58;101069.53;5071618;28;20039;-90
2022/06/11 06:10:58;;;;;;;17.23;3.60;;;;;;;18.97;60.97;101062.09;5071585;28;20638;-89
2022/06/11 06:16:08;;;;;;;26.33;3.85;;;;;;;19.89;58.02;101070.34;5071109;28;20039;-89
2022/06/11 06:18:33;;;;;;;22.73;5.43;;;;;;;19.26;59.07;101069.19;5051782;28;20025;-89
2022/06/11 06:20:58;;;;;;;24.25;4.60;;;;;;;19.84;58.17;101083.28;5051411;28;20495;-89
2022/06/11 06:23:24;;;;;;;18.13;3.50;;;;;;;20.44;56.86;101080.06;5058752;28;20028;-88
2022/06/11 06:25:49;;;;;;;13.45;3.40;;;;;;;20.99;55.58;101080.75;5070917;28;20040;-90
2022/06/11 06:28:15;;;;;;;26.75;4.88;;;;;;;22.12;52.40;101080.66;5070902;28;20081;-90
2022/06/11 06:30:41;;;;;;;21.35;4.28;;;;;;;22.72;50.80;101074.22;5069952;28;20021;-90
2022/06/11 06:33:06;;;;;;;17.40;3.53;;;;;;;24.68;46.21;101071.81;5067133;28;20573;-91
2022/06/11 06:35:32;;;;;;;17.42;3.33;;;;;;;26.69;42.03;101059.13;5071115;28;20020;-90
2022/06/11 06:37:58;;;;;;;14.40;3.05;;;;;;;28.41;38.21;101057.47;5067123;28;20502;-91
2022/06/11 06:40:23;;;;;;;19.77;3.35;;;;;;;26.64;42.11;101075.00;5056110;28;20029;-90
2022/06/11 06:42:49;;;;;;;15.05;3.30;;;;;;;26.86;40.99;101075.84;5058066;28;20082;-91
2022/06/11 06:45:15;;;;;;;20.50;3.45;;;;;;;28.38;38.31;101083.03;5074971;28;20290;-90
2022/06/11 06:47:41;;;;;;;15.43;3.25;;;;;;;24.73;44.80;101090.09;5075179;28;20031;-90
2022/06/11 06:50:07;;;;;;;20.33;3.85;;;;;;;26.94;40.27;101045.22;5074965;28;20091;-90
2022/06/11 06:52:32;;;;;;;19.33;4.35;;;;;;;29.92;35.38;101043.09;5068799;28;20135;-90
2022/06/11 06:54:58;;;;;;;17.55;3.90;;;;;;;32.32;31.87;101028.94;5071561;28;20175;-91
2022/06/11 06:57:23;;;;;;;18.05;2.90;;;;;;;33.94;29.14;101040.91;5073448;28;20074;-90
2022/06/11 06:59:49;;;;;;;23.55;4.15;;;;;;;33.58;30.36;101063.91;5058464;28;20363;-92
2022/06/11 07:02:15;;;;;;;11.18;2.70;;;;;;;30.99;33.37;101062.09;5058163;28;20017;-92
2022/06/11 07:04:40;;;;;;;13.07;3.22;;;;;;;31.54;32.91;101064.03;5072736;28;20130;-93
2022/06/11 07:07:06;;;;;;;12.15;2.83;;;;;;;29.20;35.41;101094.50;5055985;28;20155;-89
2022/06/11 07:09:32;;;;;;;13.25;4.15;;;;;;;29.04;36.14;101092.22;5054716;28;20025;-89
2022/06/11 07:11:57;;;;;;;12.95;3.05;;;;;;;28.18;37.90;101080.31;5054914;28;20498;-90
2022/06/11 07:14:22;;;;;;;12.55;3.03;;;;;;;27.20;39.36;101088.50;5072087;28;20089;-90
2022/06/11 07:16:52;;;;;;;19.70;3.90;;;;;;;25.48;42.39;101096.44;5073537;28;20028;-90
2022/06/11 07:19:21;;;;;;;12.55;3.17;;;;;;;24.06;45.02;101099.56;5074588;28;20893;-89
2022/06/11 07:21:51;;;;;;;20.02;3.22;;;;;;;24.19;45.44;101092.78;5074819;28;20394;-91
2022/06/11 07:24:21;;;;;;;15.45;3.47;;;;;;;28.31;38.16;101073.25;5070883;28;20387;-91
2022/06/11 07:26:51;;;;;;;11.55;2.85;;;;;;;33.85;29.57;101036.97;5074675;28;20032;-91
2022/06/11 07:29:24;;;;;;;16.92;2.88;;;;;;;28.79;36.00;101094.72;5073246;28;20036;-90
2022/06/11 07:31:54;;;;;;;16.85;3.35;;;;;;;25.68;41.71;101102.91;5073219;28;20414;-90
2022/06/11 07:34:19;;;;;;;22.02;3.17;;;;;;;25.55;42.26;101099.19;5074472;28;20025;-90
2022/06/11 07:36:46;;;;;;;14.30;3.90;;;;;;;24.86;43.29;101111.81;5073379;28;20032;-90
2022/06/11 07:39:11;;;;;;;22.67;5.07;;;;;;;23.00;47.93;101108.69;5072589;28;20094;-90
2022/06/11 07:41:37;;;;;;;14.73;3.05;;;;;;;23.22;47.21;101095.63;5064755;28;20036;-90
2022/06/11 07:44:02;;;;;;;16.80;4.22;;;;;;;23.80;46.06;101104.38;5071517;28;20497;-89
2022/06/11 07:46:28;;;;;;;14.25;3.53;;;;;;;28.00;38.69;101069.22;5058577;28;20107;-89
2022/06/11 07:48:55;;;;;;;10.30;2.45;;;;;;;28.86;36.32;101063.94;5067953;28;20109;-90
2022/06/11 07:51:23;;;;;;;13.23;3.17;;;;;;;30.09;35.04;101080.47;5067893;28;20107;-90
2022/06/11 07:53:51;;;;;;;15.65;3.05;;;;;;;30.27;33.55;101085.97;5066765;28;20028;-90
2022/06/11 07:56:19;;;;;;;11.98;3.38;;;;;;;32.79;30.78;101029.00;5063108;28;20025;-89
2022/06/11 07:58:45;;;;;;;10.65;2.45;;;;;;;35.70;27.29;101078.00;5072617;28;20024;-90
2022/06/11 08:01:11;;;;;;;12.52;2.65;;;;;;;33.52;29.51;101087.47;5071255;28;20024;-90
2022/06/11 08:03:38;;;;;;;13.10;2.58;;;;;;;35.72;26.38;101086.75;5072646;28;20062;-90
2022/06/11 08:06:05;;;;;;;9.23;2.45;;;;;;;33.66;28.59;101098.13;5067273;28;20539;-90
2022/06/11 08:08:32;;;;;;;11.30;2.72;;;;;;;34.39;28.22;101049.38;5067798;28;20020;-91
2022/06/11 08:11:02;;;;;;;6.78;2.05;;;;;;;34.78;27.63;101077.56;5072217;28;20423;-92
2022/06/11 08:13:28;;;;;;;12.52;2.70;;;;;;;32.84;29.71;101112.56;5069084;28;20036;-89
2022/06/11 08:15:54;;;;;;;10.30;2.13;;;;;;;30.00;33.64;101104.28;5072453;28;20029;-90
2022/06/11 08:18:21;;;;;;;15.15;2.63;;;;;;;31.48;31.69;101104.81;5071787;28;20028;-89
2022/06/11 08:20:49;;;;;;;7.97;2.30;;;;;;;28.31;36.28;101103.78;5072303;28;20067;-89
2022/06/11 08:23:15;;;;;;;13.10;2.97;;;;;;;33.46;29.64;101096.59;5071124;28;20135;-89
2022/06/11 08:25:41;;;;;;;16.42;2.88;;;;;;;31.08;32.45;101103.31;5065486;28;20459;-89
2022/06/11 08:28:07;;;;;;;11.87;2.83;;;;;;;29.18;35.90;101106.56;5070358;28;20039;-89
2022/06/11 08:30:34;;;;;;;11.18;2.50;;;;;;;30.08;33.35;101114.03;5070600;28;20024;-89
2022/06/11 08:33:00;;;;;;;15.10;3.47;;;;;;;27.69;36.79;101111.84;5070480;28;20028;-89
2022/06/11 08:35:28;;;;;;;11.10;2.35;;;;;;;26.29;39.70;101132.22;5072635;28;20024;-89
2022/06/11 08:37:54;;;;;;;14.02;3.72;;;;;;;26.26;39.83;101139.84;5070551;28;20033;-90
2022/06/11 08:40:33;;;;;;;10.23;2.65;;;;;;;25.12;42.29;101134.75;5071255;28;20047;-88
2022/06/11 08:43:21;;;;;;;14.68;2.60;;;;;;;27.25;39.30;101117.59;5070932;28;20048;-88
2022/06/11 08:45:51;;;;;;;13.73;3.15;;;;;;;28.54;36.01;101122.34;5067482;28;20044;-88
2022/06/11 08:48:19;;;;;;;11.10;2.95;;;;;;;28.69;35.37;101111.34;5084432;28;20106;-90
2022/06/11 08:50:59;;;;;;;14.43;3.60;;;;;;;27.36;38.62;101116.22;5074266;28;20536;-90
2022/06/11 08:53:25;;;;;;;11.10;2.55;;;;;;;26.51;40.22;101116.94;5070138;28;20032;-90
2022/06/11 08:55:50;;;;;;;16.42;3.35;;;;;;;27.33;38.89;101113.91;5071431;28;20382;-90
2022/06/11 08:58:16;;;;;;;11.85;3.03;;;;;;;26.48;40.69;101120.03;5069957;28;20429;-90
2022/06/11 09:01:06;;;;;;;16.55;3.97;;;;;;;25.33;42.62;101124.13;5063070;28;20020;-89
2022/06/11 09:04:03;;;;;;;17.02;4.10;;;;;;;24.78;43.21;101122.59;5066786;28;20021;-89
2022/06/11 09:06:55;;;;;;;10.63;2.78;;;;;;;24.70;43.93;101136.06;5059114;28;20047;-88
2022/06/11 09:09:26;;;;;;;14.95;4.30;;;;;;;25.78;42.99;101126.00;5063493;28;20110;-89
2022/06/11 09:12:04;;;;;;;;;;;;;;;30.98;34.36;101119.28;5066137;28;20025;-89
2022/06/11 09:14:48;;;;;;;15.45;2.95;;;;;;;31.79;32.81;101111.97;5056790;28;19920;-88
2022/06/11 09:17:21;;;;;;;18.70;3.17;;;;;;;29.03;35.19;101123.00;5063422;28;20036;-89
2022/06/11 09:20:07;;;;;;;13.02;2.85;;;;;;;32.10;32.68;101107.41;5065293;28;20024;-90
2022/06/11 09:22:49;;;;;;;10.85;2.75;;;;;;;32.66;30.72;101106.16;5064163;28;20120;-93
2022/06/11 09:25:44;;;;;;;13.32;2.40;;;;;;;33.71;28.97;101106.38;5054540;28;20031;-93
2022/06/11 09:28:27;;;;;;;13.23;2.53;;;;;;;32.49;31.16;101102.47;5063266;28;20021;-93
2022/06/11 09:31:21;;;;;;;13.45;3.55;;;;;;;31.58;32.25;101103.25;5063571;28;20056;-92
2022/06/11 09:34:02;;;;;;;12.23;3.55;;;;;;;31.13;32.26;101114.34;5061776;28;20110;-92
2022/06/11 09:36:36;;;;;;;11.77;2.60;;;;;;;28.74;35.94;101106.16;5059277;28;20029;-93
2022/06/11 09:39:08;;;;;;;10.15;2.55;;;;;;;28.21;36.91;101117.69;5053301;28;20320;-92
2022/06/11 09:41:48;;;;;;;7.00;1.92;;;;;;;28.04;37.11;101130.72;5060561;28;20020;-90
2022/06/11 09:44:21;;;;;;;13.48;2.65;;;;;;;26.48;39.64;101140.72;5059281;28;20383;-90
2022/06/11 09:47:10;;;;;;;14.57;3.05;;;;;;;26.00;40.69;101141.22;5053068;28;20025;-89
2022/06/11 09:49:54;;;;;;;14.30;2.50;;;;;;;26.46;40.53;101135.53;5067910;28;20032;-92
2022/06/11 09:52:27;;;;;;;8.77;2.10;;;;;;;28.96;36.60;101130.28;5062746;28;20426;-91
2022/06/11 09:55:06;;;;;;;11.73;1.95;;;;;;;30.19;34.50;101124.97;5069297;28;20017;-91
2022/06/11 09:57:50;;;;;;;16.02;2.83;;;;;;;32.19;31.03;101117.75;5070001;28;20036;-91
2022/06/11 10:00:38;;;;;;;10.18;2.72;;;;;;;33.33;32.05;101113.19;5063141;28;20024;-91
2022/06/11 10:06:07;;;;;;;11.23;1.90;;;;;;;34.50;28.26;101111.16;5052994;28;20082;-90
2022/06/11 10:08:35;;;;;;;13.13;2.15;;;;;;;32.32;31.07;101115.88;5066725;28;20032;-92
2022/06/11 10:11:05;;;;;;;9.23;2.03;;;;;;;33.46;29.70;101110.22;5050352;28;20025;-95
2022/06/11 10:13:41;;;;;;;7.75;1.75;;;;;;;34.06;28.21;101105.44;5050378;28;20028;-92
2022/06/11 10:16:29;;;;;;;15.05;2.80;;;;;;;34.08;28.53;101097.84;5062900;28;20021;-91
2022/06/11 10:19:02;;;;;;;8.77;2.33;;;;;;;35.46;26.87;101097.34;5057280;28;20031;-91
2022/06/11 10:21:30;;;;;;;8.10;1.95;;;;;;;34.55;27.80;101103.06;5065610;28;20065;-91
2022/06/11 10:24:04;;;;;;;10.30;2.30;;;;;;;33.11;29.10;101102.91;5069216;28;20455;-90
2022/06/11 10:26:37;;;;;;;7.35;2.15;;;;;;;33.66;29.20;101098.94;5070659;28;20097;-90
2022/06/11 10:29:14;;;;;;;8.65;2.42;;;;;;;33.27;29.35;101100.53;5052380;28;20029;-91
2022/06/11 10:31:48;;;;;;;9.60;3.03;;;;;;;30.86;31.31;101102.03;5069836;28;20032;-90
2022/06/11 10:34:19;;;;;;;12.48;2.30;;;;;;;30.95;31.64;101109.72;5058893;28;20479;-89
2022/06/11 10:37:07;;;;;;;10.05;2.10;;;;;;;30.97;31.24;101104.06;5062135;28;20021;-90
2022/06/11 10:39:41;;;;;;;12.75;2.70;;;;;;;30.82;32.23;101102.47;5065232;28;20048;-88
2022/06/11 10:42:21;;;;;;;11.98;2.83;;;;;;;31.33;31.77;101100.56;5069203;28;20047;-90
2022/06/11 10:44:53;;;;;;;8.45;2.22;;;;;;;33.65;29.60;101091.88;5069368;28;20500;-91
2022/06/11 10:47:21;;;;;;;;;;;;;;;32.41;30.40;101098.19;5060371;28;20503;-93
2022/06/11 10:49:50;;;;;;;9.35;2.20;;;;;;;29.45;32.87;101101.94;5058981;28;20018;-90
2022/06/11 10:52:31;;;;;;;9.95;2.97;;;;;;;29.13;33.27;101104.53;5061006;28;20726;-91
2022/06/11 10:54:56;;;;;;;10.63;2.10;;;;;;;28.48;35.22;101110.47;5058442;28;20053;-91
2022/06/11 10:57:25;;;;;;;8.32;1.83;;;;;;;29.56;33.12;101114.84;5058820;28;20316;-90
2022/06/11 11:00:00;;;;;;;9.05;2.03;;;;;;;29.91;33.03;101105.56;5050996;28;20040;-89
2022/06/11 11:02:28;;;;;;;17.38;2.63;;;;;;;28.17;34.94;101110.19;5060619;28;20506;-90
2022/06/11 11:05:05;;;;;;;7.28;1.75;;;;;;;27.48;37.24;101109.25;5070143;28;20033;-90
2022/06/11 11:07:50;;;;;;;14.23;2.13;;;;;;;25.41;38.54;101111.63;5070906;28;20514;-91
2022/06/11 11:10:49;;;;;;;11.93;2.22;;;;;;;26.06;38.73;101118.91;5071358;28;20074;-90
2022/06/11 11:13:23;;;;;;;7.60;1.83;;;;;;;25.47;39.71;101118.94;5067562;28;20039;-88
2022/06/11 11:15:59;;;;;;;12.18;2.88;;;;;;;25.92;41.66;101117.94;5071165;28;20033;-90
2022/06/11 11:18:32;;;;;;;17.08;3.83;;;;;;;26.99;41.21;101118.22;5068404;28;20437;-91
2022/06/11 11:20:57;;;;;;;11.70;2.70;;;;;;;28.45;39.06;101118.97;5069776;28;20470;-90
2022/06/11 11:23:34;;;;;;;10.45;2.80;;;;;;;29.75;36.14;101120.41;5068463;28;20075;-91
2022/06/11 11:26:10;;;;;;;17.98;3.35;;;;;;;30.46;36.25;101126.75;5073747;28;20028;-90
2022/06/11 11:28:54;;;;;;;12.60;2.60;;;;;;;31.16;34.10;101121.19;5074897;28;20095;-93
2022/06/11 11:31:30;;;;;;;8.98;2.15;;;;;;;29.39;35.11;101121.75;5073418;28;20479;-92
2022/06/11 11:34:03;;;;;;;14.85;3.90;;;;;;;29.02;35.96;101124.88;5074343;28;20028;-92
2022/06/11 11:36:32;;;;;;;8.40;2.38;;;;;;;28.95;36.45;101115.09;5075559;28;20028;-96
2022/06/11 11:39:11;;;;;;;9.27;2.25;;;;;;;29.49;35.54;101113.19;5074198;28;20032;-91
2022/06/11 11:41:38;;;;;;;8.82;2.40;;;;;;;29.95;34.48;101126.56;5054263;28;20025;-90
2022/06/11 11:44:04;;;;;;;10.13;2.33;;;;;;;31.04;33.08;101115.66;5053224;28;20041;-90
2022/06/11 11:46:35;;;;;;;9.50;2.15;;;;;;;30.92;33.11;101112.03;5054104;28;20111;-90